Time;durP1;ratioP1;P1;durP2;ratioP2;P2;SDS_P1;SDS_P2;PMS_P1;PMS_P2;Temp;Humidity;BMP_temperature;BMP_pressure;BME280_temperature;BME280_humidity;BME280_pressure;Samples;Min_cycle;Max_cycle;Signal;HPM_P1;HPM_P2
2024/03/21 00:02:13;;;;;;;22.77;8.32;;;;;;;7.38;57.27;100147.09;5090949;28;20124;-26
2024/03/21 00:04:38;;;;;;;23.05;8.68;;;;;;;7.35;57.97;100150.94;5090797;28;20097;-25
2024/03/21 00:07:04;;;;;;;18.13;8.40;;;;;;;7.28;59.07;100147.31;5090572;28;20035;-26
2024/03/21 00:09:30;;;;;;;19.67;8.38;;;;;;;7.18;59.03;100138.78;5090598;28;20085;-25
2024/03/21 00:11:56;;;;;;;18.75;8.30;;;;;;;7.06;58.51;100143.59;5090817;28;20081;-26
2024/03/21 00:14:22;;;;;;;17.40;8.18;;;;;;;6.93;58.79;100140.66;5090834;28;20024;-26
2024/03/21 00:16:48;;;;;;;14.63;6.90;;;;;;;6.78;59.39;100136.06;5090426;28;20106;-25
2024/03/21 00:19:15;;;;;;;14.18;6.75;;;;;;;6.84;58.89;100134.56;5090770;28;20024;-25
2024/03/21 00:21:41;;;;;;;18.30;6.82;;;;;;;6.83;59.32;100131.13;5090388;28;20093;-25
2024/03/21 00:24:06;;;;;;;13.02;6.68;;;;;;;7.16;57.69;100132.78;5090293;28;20024;-26
2024/03/21 00:26:31;;;;;;;12.93;5.80;;;;;;;7.32;56.15;100135.38;5090445;28;20107;-26
2024/03/21 00:28:57;;;;;;;9.82;5.70;;;;;;;7.31;56.31;100125.81;5090301;28;20039;-26
2024/03/21 00:31:23;;;;;;;9.90;5.45;;;;;;;7.37;55.55;100119.00;5090323;28;20107;-26
2024/03/21 00:33:49;;;;;;;12.13;5.47;;;;;;;7.30;55.73;100126.78;5090134;28;20028;-26
2024/03/21 00:36:15;;;;;;;12.30;6.10;;;;;;;7.14;57.29;100129.50;5090697;28;20043;-26
2024/03/21 00:38:41;;;;;;;11.35;5.60;;;;;;;7.17;56.97;100123.88;5090166;28;20106;-26
2024/03/21 00:41:07;;;;;;;10.73;5.47;;;;;;;7.37;56.66;100119.00;5090337;28;20023;-26
2024/03/21 00:43:32;;;;;;;9.60;5.50;;;;;;;7.39;55.36;100101.09;5090289;28;20081;-26
2024/03/21 00:45:57;;;;;;;9.55;5.55;;;;;;;7.51;55.41;100118.25;5090019;28;20108;-26
2024/03/21 00:48:23;;;;;;;9.48;5.28;;;;;;;7.07;57.25;100112.69;5090382;28;20028;-26
2024/03/21 00:50:48;;;;;;;7.53;4.82;;;;;;;7.30;55.99;100112.75;5089939;28;20024;-26
2024/03/21 00:53:13;;;;;;;9.93;4.78;;;;;;;7.19;56.52;100112.09;5090175;28;20431;-26
2024/03/21 00:55:39;;;;;;;8.45;4.90;;;;;;;7.30;57.00;100100.31;5091700;28;20448;-26
2024/03/21 00:58:04;;;;;;;8.90;4.80;;;;;;;7.63;55.05;100105.41;5093994;28;20192;-26
2024/03/21 01:00:30;;;;;;;8.45;5.05;;;;;;;7.58;55.12;100103.31;5094169;28;20028;-26
2024/03/21 01:02:56;;;;;;;10.15;5.70;;;;;;;7.77;54.69;100104.69;5094337;28;20020;-25
2024/03/21 01:05:21;;;;;;;10.23;6.13;;;;;;;7.68;55.01;100100.44;5094066;28;20525;-26
2024/03/21 01:07:47;;;;;;;12.00;6.20;;;;;;;7.75;54.80;100097.88;5093963;28;20028;-26
2024/03/21 01:10:13;;;;;;;10.77;6.18;;;;;;;8.06;54.16;100089.88;5076264;28;20499;-26
2024/03/21 01:12:38;;;;;;;12.68;6.65;;;;;;;8.04;54.47;100083.94;5073924;28;20415;-24
2024/03/21 01:15:04;;;;;;;10.20;6.18;;;;;;;7.97;54.53;100081.16;5082503;28;20478;-26
2024/03/21 01:17:29;;;;;;;10.73;6.13;;;;;;;7.59;54.61;100073.16;5094232;28;20032;-26
2024/03/21 01:19:55;;;;;;;10.35;5.57;;;;;;;7.59;54.78;100075.00;5093457;28;20544;-25
2024/03/21 01:22:20;;;;;;;9.60;5.20;;;;;;;7.54;54.37;100077.31;5093564;28;20035;-25
2024/03/21 01:24:46;;;;;;;9.50;5.50;;;;;;;7.79;54.12;100073.53;5080197;28;20026;-26
2024/03/21 01:27:11;;;;;;;8.63;5.70;;;;;;;7.86;53.33;100059.56;5073737;28;20025;-26
2024/03/21 01:29:37;;;;;;;10.70;5.70;;;;;;;7.86;53.28;100056.91;5073361;28;20021;-26
2024/03/21 01:32:02;;;;;;;9.73;5.20;;;;;;;8.12;52.72;100073.25;5073355;28;20028;-26
2024/03/21 01:34:28;;;;;;;8.35;4.93;;;;;;;8.09;52.28;100067.47;5073231;28;20036;-26
2024/03/21 01:36:53;;;;;;;7.28;4.43;;;;;;;8.03;53.00;100058.41;5078734;28;20074;-26
2024/03/21 01:39:19;;;;;;;7.88;4.43;;;;;;;8.19;51.64;100063.59;5094238;28;20122;-24
2024/03/21 01:41:45;;;;;;;7.38;4.65;;;;;;;8.50;50.90;100069.78;5093979;28;20032;-24
2024/03/21 01:44:19;;;;;;;6.78;4.50;;;;;;;8.61;50.01;100069.34;5093991;28;20024;-24
2024/03/21 01:46:46;;;;;;;5.88;4.13;;;;;;;8.85;49.44;100062.91;5091777;28;20051;-25
2024/03/21 01:49:12;;;;;;;10.32;4.30;;;;;;;8.52;49.91;100047.38;5073737;28;20020;-25
2024/03/21 01:51:39;;;;;;;7.20;4.40;;;;;;;8.61;49.87;100035.66;5089479;28;20031;-25
2024/03/21 01:54:06;;;;;;;6.50;4.25;;;;;;;8.85;49.58;100051.47;5093577;28;20039;-25
2024/03/21 01:56:31;;;;;;;7.60;3.90;;;;;;;8.78;49.45;100060.19;5093720;28;20103;-25
2024/03/21 01:58:57;;;;;;;6.60;4.20;;;;;;;8.89;49.07;100063.38;5093394;28;20131;-25
2024/03/21 02:01:28;;;;;;;9.50;4.13;;;;;;;8.87;49.07;100058.25;5093644;28;20451;-25
2024/03/21 02:03:59;;;;;;;10.18;4.40;;;;;;;8.82;49.21;100060.63;5092944;28;20024;-26
2024/03/21 02:06:29;;;;;;;6.93;4.25;;;;;;;9.08;48.67;100052.19;5093200;28;20403;-25
2024/03/21 02:08:55;;;;;;;8.00;4.53;;;;;;;9.08;48.85;100054.00;5092926;28;20027;-25
2024/03/21 02:11:22;;;;;;;7.05;4.32;;;;;;;8.93;49.67;100049.56;5093312;28;20028;-25
2024/03/21 02:13:48;;;;;;;8.63;4.45;;;;;;;8.92;48.97;100053.19;5093469;28;20026;-25
2024/03/21 02:16:14;;;;;;;7.32;4.20;;;;;;;9.03;48.48;100051.91;5093178;28;20024;-26
2024/03/21 02:18:39;;;;;;;6.05;4.28;;;;;;;8.90;49.22;100049.09;5092934;28;20027;-25
2024/03/21 02:22:35;;;;;;;5.82;4.20;;;;;;;8.91;49.18;100045.41;5092820;28;20027;-25
2024/03/21 02:23:51;;;;;;;7.55;4.30;;;;;;;9.07;48.46;100053.19;5092144;28;20027;-25
2024/03/21 02:26:17;;;;;;;8.73;4.43;;;;;;;8.82;49.14;100051.88;5093293;28;20027;-26
2024/03/21 02:28:42;;;;;;;6.90;4.10;;;;;;;8.56;50.07;100046.00;5092706;28;20099;-25
2024/03/21 02:31:07;;;;;;;6.38;3.80;;;;;;;8.82;49.58;100041.25;5081879;28;20579;-25
2024/03/21 02:33:33;;;;;;;6.30;3.90;;;;;;;9.03;49.31;100046.59;5092024;28;20380;-26
2024/03/21 02:35:58;;;;;;;7.32;4.72;;;;;;;8.84;49.12;100045.34;5092361;28;20024;-25
2024/03/21 02:38:24;;;;;;;7.13;4.55;;;;;;;8.70;49.72;100046.16;5092277;28;20048;-26
2024/03/21 02:40:49;;;;;;;6.93;4.28;;;;;;;8.74;49.67;100050.13;5092681;28;20031;-25
2024/03/21 02:43:14;;;;;;;6.63;4.07;;;;;;;8.40;50.54;100052.28;5092509;28;20055;-25
2024/03/21 02:45:40;;;;;;;8.45;4.70;;;;;;;8.63;49.93;100051.41;5092804;28;20097;-25
2024/03/21 02:48:06;;;;;;;6.13;4.00;;;;;;;8.23;51.40;100054.25;5089064;28;20477;-25
2024/03/21 02:50:33;;;;;;;8.93;4.40;;;;;;;8.45;50.79;100046.44;5072488;28;20038;-25
2024/03/21 02:52:58;;;;;;;8.38;4.10;;;;;;;8.60;50.70;100047.28;5072539;28;20016;-25
2024/03/21 02:55:24;;;;;;;6.55;4.07;;;;;;;8.23;51.49;100053.44;5072176;28;20031;-24
2024/03/21 02:57:49;;;;;;;7.78;4.10;;;;;;;8.42;50.85;100046.81;5084171;28;20488;-24
2024/03/21 03:00:15;;;;;;;7.45;4.22;;;;;;;8.59;50.12;100048.28;5092574;28;20061;-25
2024/03/21 03:02:41;;;;;;;7.88;4.70;;;;;;;8.50;50.21;100049.38;5092247;28;20056;-25
2024/03/21 03:05:10;;;;;;;9.57;4.35;;;;;;;8.39;50.96;100049.78;5092234;28;20035;-25
2024/03/21 03:07:36;;;;;;;6.13;4.30;;;;;;;8.44;50.91;100055.41;5092364;28;20051;-25
2024/03/21 03:10:01;;;;;;;7.38;4.22;;;;;;;8.09;51.37;100057.72;5092124;28;20083;-25
2024/03/21 03:12:26;;;;;;;5.95;3.80;;;;;;;7.93;52.08;100048.06;5090890;28;20136;-25
2024/03/21 03:14:52;;;;;;;7.15;4.20;;;;;;;8.35;51.53;100049.34;5092509;28;20572;-25
2024/03/21 03:17:17;;;;;;;7.28;4.10;;;;;;;8.19;51.64;100050.31;5092306;28;20490;-25
2024/03/21 03:19:42;;;;;;;6.32;4.15;;;;;;;8.22;51.57;100038.53;5091114;28;20514;-25
2024/03/21 03:22:08;;;;;;;8.50;3.78;;;;;;;7.78;52.60;100052.50;5092044;28;20330;-26
2024/03/21 03:24:33;;;;;;;8.20;4.38;;;;;;;8.05;52.22;100031.75;5091610;28;20499;-25
2024/03/21 03:26:58;;;;;;;6.32;4.05;;;;;;;8.31;51.56;100040.09;5091722;28;20369;-25
2024/03/21 03:29:24;;;;;;;7.78;4.97;;;;;;;7.99;51.85;100039.41;5091780;28;20048;-26
2024/03/21 03:31:49;;;;;;;6.05;4.20;;;;;;;7.95;52.46;100042.59;5091963;28;20077;-25
2024/03/21 03:36:59;;;;;;;7.03;4.20;;;;;;;7.67;53.40;100035.19;5091456;28;20124;-26
2024/03/21 03:39:24;;;;;;;6.22;4.20;;;;;;;7.85;52.17;100029.59;5091613;28;20426;-25
2024/03/21 03:41:50;;;;;;;7.55;4.85;;;;;;;8.25;51.30;100027.56;5091772;28;20024;-25
2024/03/21 03:44:15;;;;;;;8.15;4.63;;;;;;;8.26;51.25;100031.03;5091350;28;20028;-25
2024/03/21 03:46:41;;;;;;;7.90;4.15;;;;;;;8.00;51.82;100032.28;5091558;28;20085;-25
2024/03/21 03:49:06;;;;;;;6.78;4.68;;;;;;;7.79;52.30;100036.44;5091491;28;20114;-24
2024/03/21 03:51:32;;;;;;;6.50;4.35;;;;;;;8.09;52.02;100028.56;5091417;28;20020;-25
2024/03/21 03:53:57;;;;;;;7.90;4.38;;;;;;;8.00;51.66;100037.59;5091190;28;20016;-25
2024/03/21 03:56:22;;;;;;;7.47;4.55;;;;;;;7.97;51.90;100038.75;5091872;28;20058;-25
2024/03/21 03:58:48;;;;;;;8.48;4.95;;;;;;;7.91;52.70;100046.63;5091206;28;20020;-25
2024/03/21 04:01:13;;;;;;;8.15;4.80;;;;;;;7.96;52.58;100042.41;5097258;28;20379;-25
2024/03/21 04:03:39;;;;;;;7.35;4.43;;;;;;;7.48;53.33;100049.72;5106157;28;20023;-25
2024/03/21 04:06:04;;;;;;;9.10;4.78;;;;;;;7.65;53.39;100050.44;5099689;28;20477;-26
2024/03/21 04:08:30;;;;;;;6.70;4.40;;;;;;;7.90;52.68;100052.91;5111528;28;20030;-25
2024/03/21 04:10:56;;;;;;;6.25;4.22;;;;;;;7.56;53.49;100062.13;5110742;28;20043;-26
2024/03/21 04:13:22;;;;;;;8.65;4.82;;;;;;;7.58;54.11;100057.47;5091059;28;20077;-25
2024/03/21 04:15:56;;;;;;;6.60;4.43;;;;;;;7.87;53.00;100054.09;5099538;28;20020;-25
2024/03/21 04:18:22;;;;;;;7.93;4.82;;;;;;;7.60;53.22;100045.69;5111512;28;20015;-25
2024/03/21 04:20:50;;;;;;;7.70;4.45;;;;;;;7.68;53.29;100065.16;5107574;28;20394;-25
2024/03/21 04:23:16;;;;;;;7.75;4.55;;;;;;;7.67;53.12;100061.69;5099194;28;20096;-25
2024/03/21 04:25:41;;;;;;;9.73;4.70;;;;;;;8.02;51.97;100062.09;5106250;28;20019;-26
2024/03/21 04:28:06;;;;;;;8.20;4.80;;;;;;;7.53;53.59;100057.16;5099996;28;20027;-25
2024/03/21 04:30:32;;;;;;;6.47;4.28;;;;;;;7.75;53.51;100050.19;5111074;28;20024;-26
2024/03/21 04:32:58;;;;;;;8.57;4.35;;;;;;;7.46;53.80;100057.03;5091247;28;20107;-25
2024/03/21 04:35:23;;;;;;;9.82;5.10;;;;;;;7.72;53.69;100051.38;5093427;28;20081;-26
2024/03/21 04:37:49;;;;;;;6.88;4.72;;;;;;;7.93;53.01;100041.94;5090782;28;20464;-25
2024/03/21 04:40:14;;;;;;;8.43;4.68;;;;;;;7.85;52.93;100047.31;5091000;28;20060;-25
2024/03/21 04:42:40;;;;;;;9.02;4.45;;;;;;;8.03;52.52;100047.81;5091088;28;20032;-26
2024/03/21 04:45:06;;;;;;;8.93;4.35;;;;;;;8.01;52.55;100049.81;5090676;28;20031;-26
2024/03/21 04:47:32;;;;;;;7.68;4.60;;;;;;;8.01;52.85;100052.47;5090857;28;20024;-26
2024/03/21 04:49:57;;;;;;;7.47;4.63;;;;;;;8.12;52.07;100051.22;5090118;28;20024;-26
2024/03/21 04:52:22;;;;;;;7.95;4.22;;;;;;;8.38;51.49;100046.34;5090323;28;20136;-25
2024/03/21 04:54:51;;;;;;;6.82;3.80;;;;;;;7.99;52.29;100051.84;5091034;28;20052;-27
2024/03/21 04:57:16;;;;;;;7.53;4.30;;;;;;;8.30;51.72;100049.06;5090745;28;20488;-24
2024/03/21 04:59:42;;;;;;;8.23;4.68;;;;;;;8.57;50.63;100054.78;5090084;28;20122;-26
2024/03/21 05:02:07;;;;;;;7.90;4.88;;;;;;;8.83;68.32;100061.44;5090200;28;20111;-27
2024/03/21 05:04:33;;;;;;;9.73;4.50;;;;;;;9.37;62.32;100064.56;5090615;28;20385;-26
2024/03/21 05:06:58;;;;;;;7.28;4.20;;;;;;;9.80;57.81;100055.78;5091170;28;20524;-26
2024/03/21 05:09:23;;;;;;;8.50;4.53;;;;;;;10.39;60.10;100059.97;5090728;28;20122;-26
2024/03/21 05:11:49;;;;;;;9.50;4.82;;;;;;;11.02;50.11;100053.75;5091110;28;20032;-26
2024/03/21 05:14:14;;;;;;;8.73;4.35;;;;;;;11.06;50.50;100039.00;5090570;28;20480;-27
2024/03/21 05:16:39;;;;;;;6.63;4.40;;;;;;;11.15;50.02;100043.16;5090710;28;20024;-26
2024/03/21 05:19:05;;;;;;;9.88;5.00;;;;;;;10.96;45.17;100053.50;5091262;28;20028;-26
2024/03/21 05:21:30;;;;;;;9.90;4.97;;;;;;;11.62;49.54;100053.94;5091270;28;20162;-28
2024/03/21 05:23:55;;;;;;;7.03;5.00;;;;;;;11.84;43.72;100051.91;5090941;28;20089;-26
2024/03/21 05:26:21;;;;;;;8.63;4.90;;;;;;;11.66;42.51;100053.31;5091109;28;20413;-27
2024/03/21 05:28:46;;;;;;;10.35;4.55;;;;;;;11.92;41.78;100051.75;5091058;28;20086;-27
2024/03/21 05:31:23;;;;;;;7.45;4.65;;;;;;;12.66;40.64;100041.78;5090980;28;20028;-27
2024/03/21 05:33:49;;;;;;;7.20;4.90;;;;;;;12.80;40.14;100045.25;5091046;28;20136;-26
2024/03/21 05:36:16;;;;;;;10.48;4.90;;;;;;;12.59;39.73;100039.16;5090874;28;20432;-28
2024/03/21 05:38:42;;;;;;;7.88;4.72;;;;;;;12.86;39.43;100045.22;5090447;28;20052;-27
2024/03/21 05:41:07;;;;;;;8.43;4.30;;;;;;;13.06;38.77;100053.16;5090490;28;20028;-27
2024/03/21 05:43:34;;;;;;;8.93;4.30;;;;;;;12.90;39.34;100040.28;5093272;28;20035;-27
2024/03/21 05:46:00;;;;;;;14.25;9.45;;;;;;;13.90;58.60;100042.41;5094526;28;20267;-27
2024/03/21 05:48:25;;;;;;;6.40;4.25;;;;;;;14.35;37.83;100044.88;5093889;28;20028;-28
2024/03/21 05:50:50;;;;;;;7.78;4.72;;;;;;;14.43;38.32;100049.97;5092687;28;20059;-27
2024/03/21 05:53:16;;;;;;;7.65;4.20;;;;;;;14.71;36.37;100046.00;5094065;28;20043;-26
2024/03/21 05:55:42;;;;;;;8.40;4.10;;;;;;;14.75;36.11;100038.31;5094376;28;20392;-29
2024/03/21 05:58:07;;;;;;;7.63;4.18;;;;;;;14.92;35.53;100033.19;5094117;28;20024;-27
2024/03/21 06:00:34;;;;;;;6.10;4.38;;;;;;;14.53;36.21;100038.75;5094415;28;20031;-27
2024/03/21 06:02:59;;;;;;;6.95;3.97;;;;;;;14.36;35.37;100038.50;5094345;28;20021;-27
2024/03/21 06:05:25;;;;;;;8.30;4.03;;;;;;;14.64;35.88;100034.53;5093489;28;20031;-28
2024/03/21 06:07:51;;;;;;;11.40;4.28;;;;;;;15.08;35.64;100035.25;5092234;28;20028;-29
2024/03/21 06:10:16;;;;;;;7.32;4.20;;;;;;;14.94;35.09;100036.47;5093657;28;20031;-29
2024/03/21 06:12:42;;;;;;;8.23;5.25;;;;;;;15.21;34.44;100039.59;5093214;28;20028;-28
2024/03/21 06:15:07;;;;;;;9.13;4.60;;;;;;;14.73;35.71;100032.38;5092481;28;20425;-27
2024/03/21 06:17:33;;;;;;;9.75;4.70;;;;;;;15.25;34.17;100030.91;5092859;28;20395;-28
2024/03/21 06:19:58;;;;;;;12.93;6.82;;;;;;;16.07;33.02;100032.19;5093115;28;20450;-29
2024/03/21 06:22:23;;;;;;;10.02;4.63;;;;;;;16.49;33.19;100039.31;5091789;28;20031;-26
2024/03/21 06:24:49;;;;;;;7.72;4.57;;;;;;;15.71;33.89;100033.16;5092893;28;20475;-28
2024/03/21 06:27:14;;;;;;;9.82;4.63;;;;;;;15.89;33.83;100035.75;5079724;28;20035;-28
2024/03/21 06:29:40;;;;;;;9.05;4.68;;;;;;;15.95;32.77;100034.81;5074690;28;20047;-27
2024/03/21 06:32:05;;;;;;;7.85;4.47;;;;;;;14.89;34.57;100028.25;5072809;28;20169;-27
2024/03/21 06:34:31;;;;;;;6.47;4.25;;;;;;;15.16;34.64;100032.25;5073006;28;20415;-28
2024/03/21 06:36:56;;;;;;;14.10;5.05;;;;;;;14.33;36.03;100032.78;5072682;28;20045;-27
2024/03/21 06:39:22;;;;;;;9.80;5.00;;;;;;;15.00;34.63;100028.34;5072573;28;20028;-27
2024/03/21 06:41:48;;;;;;;8.65;4.93;;;;;;;15.34;35.31;100033.25;5071971;28;20029;-27
2024/03/21 06:44:14;;;;;;;8.50;4.50;;;;;;;16.35;33.17;100033.31;5071886;28;20028;-28
2024/03/21 06:46:40;;;;;;;8.73;4.43;;;;;;;16.02;33.70;100032.03;5072678;28;20030;-28
2024/03/21 06:49:06;;;;;;;6.18;4.20;;;;;;;16.26;32.96;100035.56;5071399;28;20024;-28
2024/03/21 06:51:31;;;;;;;8.90;4.50;;;;;;;16.20;33.39;100037.31;5071655;28;20032;-28
2024/03/21 06:53:56;;;;;;;9.65;4.88;;;;;;;16.23;33.45;100036.03;5071763;28;20021;-28
2024/03/21 06:56:22;;;;;;;9.63;5.10;;;;;;;16.36;33.73;100038.47;5071680;28;20112;-27
2024/03/21 06:58:49;;;;;;;10.15;4.40;;;;;;;16.91;32.38;100039.13;5071675;28;20025;-27
2024/03/21 07:01:15;;;;;;;6.75;4.55;;;;;;;17.08;31.77;100036.50;5072354;28;20185;-27
2024/03/21 07:03:40;;;;;;;5.50;4.30;;;;;;;17.19;31.53;100044.53;5072050;28;20032;-27
2024/03/21 07:06:05;;;;;;;7.97;4.38;;;;;;;17.75;30.67;100051.97;5072113;28;20702;-27
2024/03/21 07:08:31;;;;;;;6.95;4.35;;;;;;;17.88;29.99;100040.94;5072038;28;20099;-28
2024/03/21 07:10:56;;;;;;;8.23;4.30;;;;;;;17.84;30.14;100047.00;5072138;28;20055;-28
2024/03/21 07:13:22;;;;;;;5.80;4.15;;;;;;;18.26;29.82;100047.44;5071931;28;20428;-29
2024/03/21 07:15:47;;;;;;;6.90;4.20;;;;;;;17.60;30.44;100047.16;5071213;28;20050;-27
2024/03/21 07:18:13;;;;;;;8.20;4.18;;;;;;;18.08;29.87;100036.91;5071833;28;20048;-26
2024/03/21 07:20:40;;;;;;;6.18;3.97;;;;;;;17.41;30.49;100038.47;5072011;28;20032;-27
2024/03/21 07:23:06;;;;;;;6.13;4.30;;;;;;;17.81;30.11;100040.22;5071261;28;20519;-28
2024/03/21 07:25:34;;;;;;;6.18;3.72;;;;;;;18.63;29.29;100041.47;5070598;28;20036;-26
2024/03/21 07:27:59;;;;;;;6.10;3.65;;;;;;;19.16;28.66;100031.09;5075807;28;20020;-28
2024/03/21 07:30:24;;;;;;;6.22;3.50;;;;;;;19.73;28.26;100027.09;5090218;28;20024;-28
2024/03/21 07:32:50;;;;;;;7.97;3.47;;;;;;;19.98;27.40;100031.06;5089724;28;20031;-28
2024/03/21 07:35:16;;;;;;;7.28;3.70;;;;;;;19.68;27.90;100033.22;5091301;28;20038;-28
2024/03/21 07:37:41;;;;;;;8.45;3.80;;;;;;;19.87;27.73;100024.75;5090504;28;20743;-28
2024/03/21 07:40:07;;;;;;;10.98;3.75;;;;;;;19.18;28.05;100025.44;5089298;28;20024;-26
2024/03/21 07:42:32;;;;;;;6.15;3.70;;;;;;;19.18;27.97;100014.66;5089105;28;20499;-28
2024/03/21 07:44:57;;;;;;;5.55;3.58;;;;;;;19.80;27.88;100021.47;5089736;28;20492;-28
2024/03/21 07:47:23;;;;;;;6.30;3.75;;;;;;;18.75;28.53;100012.53;5089256;28;20534;-26
2024/03/21 07:49:49;;;;;;;6.05;3.75;;;;;;;19.81;27.49;100018.50;5089135;28;20093;-27
2024/03/21 07:52:14;;;;;;;6.43;3.83;;;;;;;19.86;27.51;100023.16;5089197;28;20088;-27
2024/03/21 07:54:39;;;;;;;9.10;3.80;;;;;;;19.57;28.48;100022.59;5090227;28;20024;-28
2024/03/21 07:57:05;;;;;;;10.18;3.70;;;;;;;19.44;28.12;100018.41;5090387;28;20035;-27
2024/03/21 07:59:30;;;;;;;7.07;3.40;;;;;;;19.95;27.53;100021.56;5090904;28;20283;-29
2024/03/21 08:01:55;;;;;;;5.32;3.80;;;;;;;20.77;26.69;100019.41;5090806;28;20024;-27
2024/03/21 08:04:21;;;;;;;7.55;3.55;;;;;;;20.87;26.50;100022.13;5090663;28;20035;-28
2024/03/21 08:06:46;;;;;;;5.60;3.45;;;;;;;19.73;27.53;100019.00;5090037;28;20024;-28
2024/03/21 08:09:12;;;;;;;4.30;3.40;;;;;;;19.88;27.29;100015.59;5090465;28;20035;-27
2024/03/21 08:11:38;;;;;;;7.63;3.47;;;;;;;20.33;26.91;100010.75;5090428;28;20023;-27
2024/03/21 08:14:03;;;;;;;6.43;3.75;;;;;;;20.22;26.36;100010.69;5090054;28;20012;-26
2024/03/21 08:16:29;;;;;;;6.07;3.30;;;;;;;20.31;26.46;100005.59;5090553;28;20024;-28
2024/03/21 08:18:54;;;;;;;7.63;3.40;;;;;;;20.60;26.67;99999.84;5090223;28;20020;-26
2024/03/21 08:21:21;;;;;;;9.88;3.42;;;;;;;18.85;27.47;100008.34;5090125;28;20028;-28
2024/03/21 08:23:47;;;;;;;6.57;3.40;;;;;;;19.67;27.45;99998.41;5090032;28;20023;-27
2024/03/21 08:26:12;;;;;;;7.88;3.90;;;;;;;19.65;27.85;99998.66;5089981;28;20035;-28
2024/03/21 08:28:38;;;;;;;5.57;3.85;;;;;;;19.47;27.09;99999.81;5090064;28;20028;-28
2024/03/21 08:31:03;;;;;;;5.65;3.40;;;;;;;19.79;26.73;99995.53;5090186;28;20035;-27
2024/03/21 08:33:29;;;;;;;7.82;3.45;;;;;;;19.93;26.34;99991.31;5090432;28;20020;-25
2024/03/21 08:35:54;;;;;;;5.38;3.65;;;;;;;20.69;25.69;99996.38;5090100;28;20043;-27
2024/03/21 08:38:19;;;;;;;8.60;3.30;;;;;;;19.78;26.19;99992.03;5089709;28;20110;-36
2024/03/21 08:40:52;;;;;;;8.55;3.75;;;;;;;19.21;27.38;99985.28;5089990;28;20081;-27
2024/03/21 08:43:18;;;;;;;5.82;3.40;;;;;;;20.13;26.65;99973.63;5090037;28;20099;-27
2024/03/21 08:45:45;;;;;;;5.65;3.80;;;;;;;20.33;26.07;99981.03;5090092;28;20529;-28
2024/03/21 08:48:11;;;;;;;6.50;3.67;;;;;;;20.07;25.71;99980.91;5090151;28;20120;-28
2024/03/21 08:50:38;;;;;;;5.97;3.20;;;;;;;18.65;27.23;99974.66;5090200;28;20035;-27
2024/03/21 08:53:04;;;;;;;5.07;3.17;;;;;;;19.26;26.51;99973.72;5089816;28;20016;-28
2024/03/21 08:55:31;;;;;;;4.70;3.22;;;;;;;19.41;26.89;99965.78;5090192;28;20028;-27
2024/03/21 08:57:56;;;;;;;3.92;3.20;;;;;;;19.61;26.82;99958.91;5089828;28;20060;-27
2024/03/21 09:00:21;;;;;;;6.32;3.58;;;;;;;20.30;25.88;99963.47;5089942;28;20043;-27
2024/03/21 09:02:47;;;;;;;7.97;3.60;;;;;;;19.82;25.82;99962.59;5089861;28;20447;-26
2024/03/21 09:05:15;;;;;;;8.52;4.03;;;;;;;20.34;26.53;99955.66;5090040;28;20111;-27
2024/03/21 09:07:40;;;;;;;6.22;3.65;;;;;;;19.81;26.45;99959.09;5090134;28;20054;-27
2024/03/21 09:10:06;;;;;;;4.78;3.38;;;;;;;19.39;26.93;99954.44;5089460;28;20492;-28
2024/03/21 09:12:31;;;;;;;6.93;3.40;;;;;;;18.64;27.88;99951.47;5089698;28;20348;-27
2024/03/21 09:14:57;;;;;;;6.78;3.50;;;;;;;18.12;29.03;99957.25;5089484;28;20336;-28
2024/03/21 09:17:22;;;;;;;4.75;3.35;;;;;;;19.12;27.91;99951.75;5090293;28;20062;-28
2024/03/21 09:19:47;;;;;;;8.10;3.90;;;;;;;19.38;27.94;99950.13;5093424;28;20039;-26
2024/03/21 09:22:13;;;;;;;6.05;3.58;;;;;;;19.74;27.00;99945.00;5093638;28;20036;-26
2024/03/21 09:24:41;;;;;;;6.38;3.70;;;;;;;20.06;26.98;99926.03;5093486;28;20032;-29
2024/03/21 09:27:07;;;;;;;4.55;3.17;;;;;;;20.67;26.23;99933.63;5093119;28;20012;-26
2024/03/21 09:29:33;;;;;;;4.07;3.13;;;;;;;20.66;25.74;99934.72;5093896;28;20020;-28
2024/03/21 09:31:58;;;;;;;8.10;3.47;;;;;;;20.00;26.61;99929.78;5093506;28;20028;-28
2024/03/21 09:34:24;;;;;;;7.68;3.15;;;;;;;19.92;27.09;99916.78;5093649;28;20027;-28
2024/03/21 09:36:50;;;;;;;5.82;3.30;;;;;;;19.60;27.08;99917.63;5081499;28;20020;-27
2024/03/21 09:39:15;;;;;;;8.15;3.60;;;;;;;19.73;27.07;99921.78;5093313;28;20040;-27
2024/03/21 09:41:41;;;;;;;6.43;3.20;;;;;;;19.60;27.29;99920.31;5093251;28;20035;-27
2024/03/21 09:44:13;;;;;;;5.93;3.80;;;;;;;19.79;27.40;99904.53;5091724;28;20111;-28
2024/03/21 09:46:41;;;;;;;6.32;3.35;;;;;;;19.45;26.68;99904.81;5093368;28;20024;-27
2024/03/21 09:49:13;;;;;;;5.20;3.25;;;;;;;19.56;26.48;99913.81;5093167;28;20080;-28
2024/03/21 09:51:39;;;;;;;5.65;3.30;;;;;;;19.86;25.95;99907.84;5092920;28;20157;-27
2024/03/21 09:54:10;;;;;;;6.07;2.97;;;;;;;19.38;26.75;99896.16;5092827;28;20484;-28
2024/03/21 09:56:35;;;;;;;5.97;2.97;;;;;;;19.84;25.99;99888.38;5092823;28;20047;-27
2024/03/21 09:59:01;;;;;;;5.03;2.95;;;;;;;19.65;26.09;99889.88;5092803;28;20484;-27
2024/03/21 10:01:26;;;;;;;5.57;2.92;;;;;;;20.11;26.34;99892.84;5092992;28;20028;-26
2024/03/21 10:03:55;;;;;;;6.40;3.30;;;;;;;20.35;26.16;99879.69;5092846;28;20032;-29
2024/03/21 10:06:20;;;;;;;9.97;3.37;;;;;;;20.09;25.85;99870.69;5093154;28;20111;-29
2024/03/21 10:08:46;;;;;;;6.03;3.03;;;;;;;20.25;26.25;99866.97;5093330;28;20400;-28
2024/03/21 10:11:12;;;;;;;6.05;3.28;;;;;;;20.32;26.60;99864.03;5093669;28;20047;-27
2024/03/21 10:13:41;;;;;;;6.18;2.80;;;;;;;20.54;25.24;99866.50;5093572;28;20016;-28
2024/03/21 10:16:09;;;;;;;6.90;2.70;;;;;;;21.50;23.72;99864.22;5093419;28;20035;-28
2024/03/21 10:18:34;;;;;;;5.28;2.90;;;;;;;21.07;24.08;99855.53;5093205;28;20468;-26
2024/03/21 10:21:00;;;;;;;8.95;2.70;;;;;;;19.98;24.39;99859.03;5093463;28;20032;-26
2024/03/21 10:23:25;;;;;;;3.28;2.47;;;;;;;19.80;25.69;99845.94;5093146;28;20024;-27
2024/03/21 10:25:51;;;;;;;3.92;2.30;;;;;;;20.15;24.72;99839.91;5093114;28;20489;-27
2024/03/21 10:28:17;;;;;;;3.80;2.38;;;;;;;20.28;24.05;99835.91;5092272;28;20028;-28
2024/03/21 10:30:44;;;;;;;5.47;2.58;;;;;;;20.50;23.96;99822.19;5092628;28;20054;-27
2024/03/21 10:33:17;;;;;;;3.40;2.42;;;;;;;20.47;23.66;99828.94;5093061;28;20059;-30
2024/03/21 10:35:43;;;;;;;4.40;2.63;;;;;;;21.09;23.44;99827.16;5092979;28;20052;-28
2024/03/21 10:38:15;;;;;;;4.38;2.85;;;;;;;20.73;23.69;99820.09;5092768;28;20505;-28
2024/03/21 10:40:55;;;;;;;3.78;2.60;;;;;;;20.30;23.73;99810.25;5093114;28;20036;-27
2024/03/21 10:43:22;;;;;;;5.72;2.90;;;;;;;20.38;24.33;99811.63;5092968;28;20020;-27
2024/03/21 10:45:48;;;;;;;5.60;2.58;;;;;;;21.56;23.42;99806.25;5092799;28;20063;-27
2024/03/21 10:48:26;;;;;;;4.65;2.42;;;;;;;21.65;23.37;99817.34;5093346;28;20039;-28
2024/03/21 10:50:52;;;;;;;6.80;2.75;;;;;;;20.77;23.76;99804.94;5093287;28;20067;-28
2024/03/21 10:53:20;;;;;;;4.15;2.60;;;;;;;21.03;23.46;99787.63;5093207;28;20480;-27
2024/03/21 10:55:45;;;;;;;5.68;2.80;;;;;;;21.28;23.76;99785.97;5093257;28;20042;-27
2024/03/21 10:58:15;;;;;;;6.47;2.78;;;;;;;21.29;23.57;99785.72;5092729;28;20036;-28
2024/03/21 11:00:48;;;;;;;4.55;2.60;;;;;;;20.40;24.11;99781.63;5092619;28;20738;-29
2024/03/21 11:03:15;;;;;;;5.22;2.50;;;;;;;20.40;24.01;99770.81;5092639;28;20035;-29
2024/03/21 11:05:41;;;;;;;5.00;2.28;;;;;;;20.21;24.29;99774.00;5092897;28;20034;-26
2024/03/21 11:08:24;;;;;;;4.22;2.58;;;;;;;20.84;23.87;99767.63;5092792;28;20031;-28
2024/03/21 11:10:50;;;;;;;6.80;2.67;;;;;;;21.09;23.92;99754.09;5092012;28;20024;-27
2024/03/21 11:13:16;;;;;;;6.28;2.53;;;;;;;21.02;24.24;99752.75;5092448;28;20028;-27
2024/03/21 11:15:42;;;;;;;4.65;2.60;;;;;;;20.70;23.89;99756.56;5092674;28;20023;-27
2024/03/21 11:18:07;;;;;;;4.97;2.80;;;;;;;20.84;24.33;99749.50;5092364;28;20063;-28
2024/03/21 11:20:32;;;;;;;5.15;2.80;;;;;;;21.55;23.63;99738.84;5092318;28;20126;-26
2024/03/21 11:22:59;;;;;;;4.30;2.70;;;;;;;21.30;24.22;99743.22;5092565;28;20055;-27
2024/03/21 11:25:25;;;;;;;5.68;2.75;;;;;;;21.46;23.52;99727.78;5092501;28;20027;-27
2024/03/21 11:27:51;;;;;;;6.15;2.60;;;;;;;21.05;24.41;99725.94;5092087;28;20093;-28